createdAt,value
2022-09-23T00:00:46.188Z,13.73
2022-09-23T00:03:28.880Z,8.02
2022-09-23T00:06:16.318Z,9.95
2022-09-23T00:09:06.178Z,8.68
2022-09-23T00:11:55.190Z,13.38
2022-09-23T00:14:37.885Z,12.05
2022-09-23T00:17:26.176Z,16.08
2022-09-23T00:20:08.814Z,10.75
2022-09-23T00:22:57.951Z,13.05
2022-09-23T00:25:40.313Z,13.60
2022-09-23T00:28:28.883Z,16.05
2022-09-23T00:31:29.822Z,16.80
2022-09-23T00:34:19.931Z,17.73
2022-09-23T00:37:08.825Z,28.80
2022-09-23T00:39:57.796Z,20.85
2022-09-23T00:42:46.904Z,20.63
2022-09-23T00:45:30.050Z,15.88
2022-09-23T00:48:19.807Z,25.67
2022-09-23T00:51:09.813Z,19.10
2022-09-23T00:53:56.260Z,18.55
2022-09-23T00:56:46.822Z,24.10
2022-09-23T00:59:31.193Z,19.38
2022-09-23T01:02:21.959Z,19.50
2022-09-23T01:05:04.183Z,23.38
2022-09-23T01:07:53.896Z,19.20
2022-09-23T01:10:44.362Z,21.00
2022-09-23T01:14:06.890Z,21.02
2022-09-23T01:17:00.206Z,23.50
2022-09-23T01:20:10.889Z,22.15
2022-09-23T01:23:16.189Z,18.92
2022-09-23T01:26:16.873Z,18.55
2022-09-23T01:29:26.788Z,15.38
2022-09-23T01:32:42.929Z,25.52
2022-09-23T01:35:44.989Z,22.52
2022-09-23T01:38:41.888Z,27.85
2022-09-23T01:41:36.193Z,40.22
2022-09-23T01:44:21.908Z,36.00
2022-09-23T01:47:32.884Z,43.25
2022-09-23T01:50:52.241Z,45.28
2022-09-23T01:53:58.171Z,33.33
2022-09-23T01:57:12.876Z,25.60
2022-09-23T02:00:11.886Z,17.70
2022-09-23T02:03:00.431Z,23.88
2022-09-23T02:05:56.876Z,18.92
2022-09-23T02:08:49.191Z,19.17
2022-09-23T02:11:43.882Z,23.00
2022-09-23T02:14:39.156Z,23.33
2022-09-23T02:17:54.890Z,24.25
2022-09-23T02:20:47.899Z,26.08
2022-09-23T02:23:45.462Z,27.88
2022-09-23T02:27:02.898Z,25.38
2022-09-23T02:30:03.877Z,18.33
2022-09-23T02:33:16.509Z,18.15
2022-09-23T02:36:14.886Z,24.48
2022-09-23T02:39:11.978Z,21.48
2022-09-23T02:42:07.173Z,19.48
2022-09-23T02:44:55.895Z,32.97
2022-09-23T02:47:42.322Z,29.70
2022-09-23T02:50:30.912Z,23.20
2022-09-23T02:53:14.307Z,26.20
2022-09-23T02:56:02.922Z,28.27
2022-09-23T02:58:51.773Z,24.45
2022-09-23T03:01:59.919Z,25.00
2022-09-23T03:04:43.593Z,25.02
2022-09-23T03:07:32.901Z,19.50
2022-09-23T03:10:24.162Z,22.77
2022-09-23T03:13:37.904Z,21.05
2022-09-23T03:16:53.239Z,23.70
2022-09-23T03:20:01.896Z,30.67
2022-09-23T03:22:58.146Z,19.33
2022-09-23T03:25:50.904Z,17.63
2022-09-23T03:28:35.174Z,28.60
2022-09-23T03:31:24.912Z,19.27
2022-09-23T03:34:10.261Z,19.30
2022-09-23T03:37:15.863Z,16.33
2022-09-23T03:40:32.979Z,17.95
2022-09-23T03:43:15.530Z,19.45
2022-09-23T03:46:08.951Z,26.73
2022-09-23T03:48:51.097Z,20.35
2022-09-23T03:51:44.393Z,16.50
2022-09-23T03:54:37.791Z,19.20
2022-09-23T03:57:23.055Z,21.48
2022-09-23T04:00:15.982Z,16.05
2022-09-23T04:03:09.538Z,21.88
2022-09-23T04:05:59.169Z,21.08
2022-09-23T04:08:40.773Z,18.35
2022-09-23T04:11:29.187Z,20.98
2022-09-23T04:14:11.873Z,17.08
2022-09-23T04:17:00.154Z,22.13
2022-09-23T04:19:42.894Z,17.70
2022-09-23T04:22:25.133Z,16.90
2022-09-23T04:25:13.881Z,27.15
2022-09-23T04:27:56.068Z,20.30
2022-09-23T04:30:44.889Z,19.45
2022-09-23T04:33:27.355Z,24.73
2022-09-23T04:36:15.863Z,18.38
2022-09-23T04:38:58.514Z,24.30
2022-09-23T04:41:46.874Z,15.73
2022-09-23T04:44:29.400Z,20.90
2022-09-23T04:47:17.793Z,18.02
2022-09-23T04:50:06.857Z,17.92
2022-09-23T04:52:56.200Z,17.83
2022-09-23T04:55:38.097Z,22.90
2022-09-23T04:58:26.901Z,20.27
2022-09-23T05:01:18.367Z,24.15
2022-09-23T05:04:09.902Z,27.83
2022-09-23T05:06:52.092Z,20.70
2022-09-23T05:09:40.898Z,22.23
2022-09-23T05:12:23.044Z,41.17
2022-09-23T05:15:23.858Z,21.38
2022-09-23T05:18:06.151Z,23.23
2022-09-23T05:20:54.864Z,19.83
2022-09-23T05:23:38.010Z,22.90
2022-09-23T05:26:27.875Z,17.73
2022-09-23T05:29:16.862Z,17.90
2022-09-23T05:32:11.772Z,21.80
2022-09-23T05:34:56.239Z,17.48
2022-09-23T05:37:44.774Z,23.25
2022-09-23T05:40:27.094Z,16.55
2022-09-23T05:43:15.806Z,17.70
2022-09-23T05:46:08.122Z,17.48
2022-09-23T05:49:02.180Z,10.20
2022-09-23T05:51:50.130Z,16.77
2022-09-23T05:54:38.781Z,22.70
2022-09-23T05:57:22.114Z,17.60
2022-09-23T06:00:10.865Z,23.73
2022-09-23T06:02:53.112Z,16.23
2022-09-23T06:05:41.885Z,16.08
2022-09-23T06:08:24.940Z,17.10
2022-09-23T06:11:17.910Z,15.93
2022-09-23T06:14:02.325Z,16.88
2022-09-23T06:16:51.880Z,16.10
2022-09-23T06:19:34.156Z,16.48
2022-09-23T06:22:24.873Z,14.52
2022-09-23T06:25:14.198Z,10.73
2022-09-23T06:28:02.930Z,18.13
2022-09-23T06:30:57.782Z,10.57
2022-09-23T06:33:46.949Z,12.85
2022-09-23T06:36:41.389Z,19.23
2022-09-23T06:39:32.769Z,11.13
2022-09-23T06:42:16.968Z,16.25
2022-09-23T06:45:06.869Z,13.93
2022-09-23T06:48:03.889Z,18.58
2022-09-23T06:50:52.709Z,13.18
2022-09-23T06:53:35.940Z,17.42
2022-09-23T06:56:26.179Z,12.45
2022-09-23T06:59:07.879Z,16.98
2022-09-23T07:01:57.367Z,15.75
2022-09-23T07:04:38.797Z,10.30
2022-09-23T07:07:27.699Z,16.02
2022-09-23T07:10:12.957Z,12.45
2022-09-23T07:13:01.140Z,10.55
2022-09-23T07:15:43.983Z,14.60
2022-09-23T07:18:36.995Z,14.38
2022-09-23T07:21:22.941Z,16.02
2022-09-23T07:24:12.451Z,17.38
2022-09-23T07:26:53.948Z,13.52
2022-09-23T07:29:46.095Z,17.02
2022-09-23T07:32:47.603Z,11.35
2022-09-23T07:35:38.180Z,17.65
2022-09-23T07:38:20.967Z,14.80
2022-09-23T07:41:12.187Z,11.70
2022-09-23T07:43:54.875Z,12.45
2022-09-23T07:46:44.825Z,11.93
2022-09-23T07:49:33.779Z,12.13
2022-09-23T07:52:22.803Z,10.65
2022-09-23T07:55:05.265Z,11.93
2022-09-23T07:57:54.122Z,14.48
2022-09-23T08:00:37.249Z,12.05
2022-09-23T08:06:13.252Z,10.95
2022-09-23T08:09:04.943Z,14.45
2022-09-23T08:11:48.202Z,11.35
2022-09-23T08:17:20.208Z,13.60
2022-09-23T08:20:08.930Z,18.33
2022-09-23T08:22:51.542Z,12.60
2022-09-23T08:25:41.401Z,13.57
2022-09-23T08:28:26.313Z,12.63
2022-09-23T08:31:21.794Z,10.50
2022-09-23T08:34:04.682Z,13.23
2022-09-23T08:36:53.933Z,15.70
2022-09-23T08:39:36.133Z,10.75
2022-09-23T08:42:34.862Z,12.82
2022-09-23T08:45:33.462Z,9.80
2022-09-23T08:48:28.784Z,5.90
2022-09-23T08:51:30.476Z,6.60
2022-09-23T08:54:12.888Z,5.85
2022-09-23T08:57:06.217Z,5.72
2022-09-23T08:59:52.935Z,8.10
2022-09-23T09:02:43.214Z,5.60
2022-09-23T09:05:35.884Z,8.15
2022-09-23T09:08:33.164Z,9.00
2022-09-23T09:11:19.894Z,9.70
2022-09-23T09:14:28.349Z,9.68
2022-09-23T09:17:21.883Z,13.45
2022-09-23T09:20:31.856Z,13.73
2022-09-23T09:23:32.867Z,10.95
2022-09-23T09:26:32.178Z,11.60
2022-09-23T09:29:35.702Z,11.20
2022-09-23T09:35:49.884Z,15.98
2022-09-23T09:38:32.895Z,14.55
2022-09-23T09:41:28.935Z,14.90
2022-09-23T09:44:30.065Z,13.80
2022-09-23T09:47:24.952Z,15.35
2022-09-23T09:50:24.970Z,14.55
2022-09-23T09:53:31.883Z,16.55
2022-09-23T09:56:19.956Z,13.48
2022-09-23T09:59:16.814Z,16.17
2022-09-23T10:02:42.119Z,15.82
2022-09-23T10:05:41.821Z,14.88
2022-09-23T10:08:30.116Z,17.92
2022-09-23T10:11:23.753Z,15.00
2022-09-23T10:14:14.207Z,20.25
2022-09-23T10:17:12.811Z,13.70
2022-09-23T10:20:08.801Z,15.93
2022-09-23T10:22:57.847Z,18.02
2022-09-23T10:25:43.095Z,17.98
2022-09-23T10:29:00.896Z,17.70
2022-09-23T10:31:51.827Z,15.20
2022-09-23T10:34:42.529Z,18.95
2022-09-23T10:37:38.896Z,18.30
2022-09-23T10:40:57.430Z,21.90
2022-09-23T10:44:00.937Z,16.70
2022-09-23T10:47:15.671Z,21.07
2022-09-23T10:50:03.818Z,19.17
2022-09-23T10:53:16.303Z,17.33
2022-09-23T10:56:23.826Z,18.40
2022-09-23T10:59:31.325Z,19.73
2022-09-23T11:02:21.825Z,19.88
2022-09-23T11:05:27.375Z,25.58
2022-09-23T11:08:12.845Z,37.22
2022-09-23T11:11:24.148Z,53.92
2022-09-23T11:14:36.881Z,47.60
2022-09-23T11:17:46.128Z,40.90
2022-09-23T11:20:39.945Z,28.50
2022-09-23T11:23:49.459Z,27.25
2022-09-23T11:26:49.380Z,27.48
2022-09-23T11:30:10.546Z,30.88
2022-09-23T11:33:21.849Z,25.42
2022-09-23T11:36:16.864Z,26.15
2022-09-23T11:39:09.126Z,18.67
2022-09-23T11:41:52.777Z,18.50
2022-09-23T11:44:57.859Z,20.58
2022-09-23T11:47:55.767Z,22.38
2022-09-23T11:50:54.862Z,23.98
2022-09-23T11:53:57.402Z,26.42
2022-09-23T11:56:53.866Z,21.65
2022-09-23T12:00:00.762Z,25.60
2022-09-23T12:03:27.652Z,17.95
2022-09-23T12:06:51.768Z,19.92
2022-09-23T12:10:07.984Z,16.65
2022-09-23T12:13:04.158Z,17.02
2022-09-23T12:15:55.871Z,18.77
2022-09-23T12:19:18.808Z,16.92
2022-09-23T12:22:22.839Z,21.05
2022-09-23T12:25:32.742Z,15.50
2022-09-23T12:28:39.192Z,18.05
2022-09-23T12:31:26.789Z,21.40
2022-09-23T12:35:00.734Z,21.27
2022-09-23T12:37:50.817Z,18.73
2022-09-23T12:40:45.734Z,26.00
2022-09-23T12:43:43.894Z,19.83
2022-09-23T12:46:29.280Z,22.98
2022-09-23T12:49:35.906Z,23.30
2022-09-23T12:52:40.257Z,25.58
2022-09-23T12:55:29.797Z,24.77
2022-09-23T12:58:47.305Z,37.97
2022-09-23T13:01:36.981Z,36.63
2022-09-23T13:04:55.805Z,35.92
2022-09-23T13:07:52.805Z,45.30
2022-09-23T13:10:42.248Z,38.60
2022-09-23T13:13:41.768Z,42.90
2022-09-23T13:16:45.837Z,42.45
2022-09-23T13:19:28.218Z,50.30
2022-09-23T13:22:20.791Z,47.50
2022-09-23T13:25:24.241Z,55.07
2022-09-23T13:28:09.832Z,53.13
2022-09-23T13:31:00.380Z,55.13
2022-09-23T13:34:08.842Z,52.85
2022-09-23T13:36:57.881Z,50.60
2022-09-23T13:39:40.288Z,54.88
2022-09-23T13:42:37.773Z,54.92
2022-09-23T13:45:35.943Z,52.95
2022-09-23T13:48:20.326Z,45.63
2022-09-23T13:51:09.919Z,47.13
2022-09-23T13:53:57.080Z,44.95
2022-09-23T13:56:47.831Z,44.08
2022-09-23T13:59:39.914Z,39.17
2022-09-23T14:02:34.063Z,36.25
2022-09-23T14:05:27.478Z,35.38
2022-09-23T14:08:17.801Z,37.30
2022-09-23T14:11:08.228Z,36.80
2022-09-23T14:13:52.852Z,31.95
2022-09-23T14:16:50.063Z,35.88
2022-09-23T14:19:35.318Z,30.88
2022-09-23T14:22:37.778Z,36.05
2022-09-23T14:25:31.917Z,29.33
2022-09-23T14:28:20.078Z,31.15
2022-09-23T14:31:12.011Z,27.80
2022-09-23T14:34:00.243Z,26.23
2022-09-23T14:37:03.385Z,28.67
2022-09-23T14:39:59.287Z,33.05
2022-09-23T14:42:50.254Z,24.50
2022-09-23T14:45:47.949Z,25.73
2022-09-23T14:48:32.147Z,24.52
2022-09-23T14:51:20.931Z,28.08
2022-09-23T14:54:03.178Z,29.65
2022-09-23T14:56:51.981Z,23.00
2022-09-23T14:59:43.604Z,24.60
2022-09-23T15:02:52.899Z,26.77
2022-09-23T15:05:56.836Z,26.33
2022-09-23T15:08:45.240Z,23.83
2022-09-23T15:11:29.833Z,23.75
2022-09-23T15:14:37.319Z,22.20
2022-09-23T15:17:30.925Z,25.95
2022-09-23T15:20:32.917Z,25.70
2022-09-23T15:23:56.049Z,29.23
2022-09-23T15:26:54.899Z,26.73
2022-09-23T15:29:37.247Z,24.23
2022-09-23T15:32:32.899Z,27.67
2022-09-23T15:35:27.780Z,28.10
2022-09-23T15:38:11.840Z,26.77
2022-09-23T15:41:01.996Z,23.27
2022-09-23T15:43:54.782Z,29.00
2022-09-23T15:46:37.680Z,27.02
2022-09-23T15:52:32.120Z,26.77
2022-09-23T15:55:32.858Z,29.85
2022-09-23T15:58:15.277Z,31.80
2022-09-23T16:01:06.028Z,24.05
2022-09-23T16:03:48.157Z,25.52
2022-09-23T16:06:37.856Z,26.42
2022-09-23T16:09:26.221Z,29.60
2022-09-23T16:12:09.832Z,29.35
2022-09-23T16:14:58.224Z,33.10
2022-09-23T16:17:41.790Z,32.95
2022-09-23T16:20:31.224Z,30.80
2022-09-23T16:23:16.999Z,30.27
2022-09-23T16:26:05.232Z,33.17
2022-09-23T16:28:47.873Z,24.83
2022-09-23T16:31:37.343Z,32.33
2022-09-23T16:34:28.921Z,33.47
2022-09-23T16:37:11.776Z,28.30
2022-09-23T16:40:00.884Z,35.30
2022-09-23T16:42:43.295Z,36.65
2022-09-23T16:45:31.935Z,36.08
2022-09-23T16:48:14.762Z,35.15
2022-09-23T16:51:03.873Z,31.20
2022-09-23T16:53:52.949Z,33.28
2022-09-23T16:56:42.860Z,30.83
2022-09-23T16:59:51.865Z,30.05
2022-09-23T17:02:59.808Z,33.78
2022-09-23T17:05:45.379Z,31.50
2022-09-23T17:08:35.946Z,29.90
2022-09-23T17:11:29.131Z,30.30
2022-09-23T17:14:21.929Z,33.03
2022-09-23T17:17:06.951Z,30.25
2022-09-23T17:19:49.365Z,34.60
2022-09-23T17:22:37.933Z,33.42
2022-09-23T17:25:26.523Z,35.35
2022-09-23T17:28:09.915Z,32.85
2022-09-23T17:31:09.754Z,31.70
2022-09-23T17:34:00.873Z,34.70
2022-09-23T17:36:43.319Z,38.88
2022-09-23T17:39:32.419Z,35.65
2022-09-23T17:42:15.811Z,35.63
2022-09-23T17:45:06.519Z,38.58
2022-09-23T17:47:55.949Z,33.30
2022-09-23T17:50:45.322Z,33.92
2022-09-23T17:53:27.393Z,35.08
2022-09-23T17:56:20.950Z,38.67
2022-09-23T17:59:07.298Z,38.63
2022-09-23T18:01:57.258Z,37.13
2022-09-23T18:04:40.152Z,42.13
2022-09-23T18:07:31.569Z,37.65
2022-09-23T18:10:15.309Z,38.55
2022-09-23T18:13:03.859Z,45.30
2022-09-23T18:15:48.309Z,44.38
2022-09-23T18:18:37.865Z,43.15
2022-09-23T18:21:20.816Z,41.28
2022-09-23T18:24:31.180Z,39.88
2022-09-23T18:27:12.175Z,45.38
2022-09-23T18:30:00.940Z,47.65
2022-09-23T18:32:43.135Z,48.22
2022-09-23T18:35:31.865Z,41.90
2022-09-23T18:38:14.485Z,45.78
2022-09-23T18:43:48.710Z,44.63
2022-09-23T18:46:38.855Z,44.10
2022-09-23T18:49:45.757Z,41.50
2022-09-23T18:52:41.967Z,46.58
2022-09-23T18:55:30.754Z,42.10
2022-09-23T18:58:20.856Z,47.28
2022-09-23T19:01:14.884Z,43.60
2022-09-23T19:04:10.168Z,45.95
2022-09-23T19:06:58.863Z,43.10
2022-09-23T19:09:41.389Z,46.00
2022-09-23T19:12:29.848Z,48.05
2022-09-23T19:15:13.292Z,47.20
2022-09-23T19:18:02.860Z,46.53
2022-09-23T19:20:45.709Z,45.95
2022-09-23T19:23:42.845Z,46.80
2022-09-23T19:26:30.500Z,46.08
2022-09-23T19:29:29.877Z,45.53
2022-09-23T19:32:12.322Z,44.05
2022-09-23T19:35:00.863Z,43.63
2022-09-23T19:37:43.361Z,47.63
2022-09-23T19:40:31.910Z,42.08
2022-09-23T19:43:21.857Z,43.75
2022-09-23T19:46:14.799Z,46.10
2022-09-23T19:48:57.202Z,46.47
2022-09-23T19:51:46.754Z,44.03
2022-09-23T19:54:29.302Z,40.22
2022-09-23T19:57:18.221Z,38.80
2022-09-23T20:00:00.573Z,44.15
2022-09-23T20:02:54.843Z,40.55
2022-09-23T20:05:37.298Z,37.03
2022-09-23T20:08:25.862Z,37.70
2022-09-23T20:11:13.518Z,35.85
2022-09-23T20:14:08.875Z,38.22
2022-09-23T20:16:51.310Z,41.92
2022-09-23T20:19:39.746Z,44.40
2022-09-23T20:22:39.887Z,37.35
2022-09-23T20:25:21.990Z,40.53
2022-09-23T20:28:10.863Z,38.20
2022-09-23T20:30:59.795Z,42.63
2022-09-23T20:33:55.827Z,38.35
2022-09-23T20:36:38.245Z,36.95
2022-09-23T20:39:26.735Z,40.15
2022-09-23T20:42:16.839Z,44.28
2022-09-23T20:44:59.125Z,42.67
2022-09-23T20:47:47.767Z,50.13
2022-09-23T20:50:30.118Z,40.70
2022-09-23T20:53:18.908Z,40.05
2022-09-23T20:56:03.142Z,38.15
2022-09-23T20:58:51.838Z,41.00
2022-09-23T21:01:40.809Z,44.33
2022-09-23T21:04:30.127Z,38.65
2022-09-23T21:07:11.780Z,42.80
2022-09-23T21:10:02.972Z,44.47
2022-09-23T21:12:44.834Z,48.47
2022-09-23T21:15:33.857Z,45.28
2022-09-23T21:18:21.739Z,45.60
2022-09-23T21:21:13.135Z,44.75
2022-09-23T21:24:23.676Z,47.38
2022-09-23T21:27:11.749Z,57.83
2022-09-23T21:30:00.832Z,54.20
2022-09-23T21:32:49.867Z,59.88
2022-09-23T21:35:38.929Z,61.35
2022-09-23T21:38:21.877Z,58.50
2022-09-23T21:41:13.155Z,63.55
2022-09-23T21:43:56.772Z,58.40
2022-09-23T21:46:45.917Z,58.50
2022-09-23T21:49:34.862Z,57.15
2022-09-23T21:52:23.872Z,56.28
2022-09-23T21:55:06.152Z,57.55
2022-09-23T21:57:54.758Z,62.33
2022-09-23T22:00:43.939Z,72.57
2022-09-23T22:03:26.760Z,84.72
2022-09-23T22:06:27.890Z,81.32
2022-09-23T22:09:24.858Z,79.25
2022-09-23T22:12:08.882Z,82.38
2022-09-23T22:14:59.773Z,83.43
2022-09-23T22:17:42.139Z,83.65
2022-09-23T22:20:30.854Z,80.22
2022-09-23T22:23:13.263Z,77.00
2022-09-23T22:26:05.772Z,83.95
2022-09-23T22:29:06.308Z,86.75
2022-09-23T22:32:12.892Z,81.15
2022-09-23T22:35:01.299Z,89.88
2022-09-23T22:37:44.776Z,86.38
2022-09-23T22:40:34.092Z,88.20
2022-09-23T22:43:16.197Z,88.85
2022-09-23T22:46:04.845Z,80.93
2022-09-23T22:48:47.396Z,81.82
2022-09-23T22:51:35.764Z,82.90
2022-09-23T22:54:19.413Z,85.93
2022-09-23T22:57:09.826Z,82.72
2022-09-23T22:59:52.487Z,84.63
2022-09-23T23:02:42.843Z,80.03
2022-09-23T23:05:31.852Z,80.90
2022-09-23T23:08:24.755Z,82.30
2022-09-23T23:11:12.463Z,84.70
2022-09-23T23:13:54.755Z,77.85
2022-09-23T23:16:43.746Z,82.75
2022-09-23T23:19:27.056Z,76.25
2022-09-23T23:22:15.730Z,81.07
2022-09-23T23:24:58.124Z,81.30
2022-09-23T23:27:46.744Z,85.30
2022-09-23T23:30:30.146Z,80.20
2022-09-23T23:33:18.848Z,82.72
2022-09-23T23:36:01.105Z,83.25
2022-09-23T23:38:51.839Z,86.35
2022-09-23T23:41:34.268Z,82.93
2022-09-23T23:44:22.762Z,79.45
2022-09-23T23:47:05.521Z,76.63
2022-09-23T23:49:54.771Z,78.40
2022-09-23T23:52:37.143Z,75.72
2022-09-23T23:55:25.890Z,76.05
2022-09-23T23:58:08.154Z,75.13
